Portada
METAR-TAF:

METAR-TAF

Aeropuertos :

Aeropuerto Internacional Aristides Pereira

Isla de Boa Vista, Cabo Verde

latitud: 16-08-15N, longitud: 22-53-22W, altitud: 21 m

METAR: falta

Hora: 06:57 (07:57 UTC)

Pronóstico

El informe se hizo hace 8 horas y 57 minutos, a las 23:00 UTC
Pronóstico válido del 31 a las 00 UTC al 01 a las 06 UTC
Viento 10 kt del norte-noreste
Visibilidad 10 km o más
Cielo nuboso a una altura de 1400 ft
Temporalmente
del 31 a las 12 UTC al 31 a las 20 UTC
Nubes dispersas a una altura de 1500 ft

TAF: GVBA 302300Z 3100/0106 03010KT 9999 BKN014 TEMPO 3112/3120 SCT015

Observaciones y pronósticos meteorológicos de más de 4000 aeropuertos (mensajes METAR y TAF).

Los puntos amarillos y rojos representan las estaciones disponibles.

Ponga el ratón en el punto deseado para ver el nombre de la estación.

Haga clic para ver las observaciones y los pronósticos meteorológicos.

Para cambiar el mapa : haga clic en los botones verdes con una cruz de color negro para hacer un zoom, en el botón verde con un guión para alejar o en las flechas verdes para mapas adyacentes.


METAR-TAF: